Terminal Aerodrome Forecast
Issued by NWS

Home | Current Version | Previous Version | Text Only | Print | Product List | Glossary On
Versions: 1 2 3 4 5 6 7 8 9 10 11 12 13 14
000
FTUS45 KRIW 261500 AAA
TAFBPI
TAF AMD
KBPI 261534Z 2616/2712 VRB04KT 3SM -SN BKN030 OVC070
     FM261800 16005KT P6SM -SN BKN040 OVC070
     FM270500 33005KT P6SM SCT040
     FM270900 33005KT P6SM VCFG FEW004=

USA.gov is the U.S. government's official web portal to all federal, state and local government web resources and services.